METAR Formatted Surface Weather Observation
Issued by NWS

Home | Current Version | Previous Version | Text Only | Print | Product List | Glossary On
Versions: 1 2 3 4 5 6 7 8 9 10 11 12 13 14 15 16 17 18 19 20 21 22 23 24 25
908
SAUS46 KLOX 090757
MTRNLC
METAR KNLC 090756Z 26006KT 10SM CLR 08/06 A3023 RMK AO2 SLP237 RH/82
T00830056 402110006



USA.gov is the U.S. government's official web portal to all federal, state and local government web resources and services.